• Join FlightAware (Why Join?)
  • Login
  • US Flag 
03:39AM EDT


 

Airport Tracker/Info


-or-


 

Live Flight TrackerFlight Track Log ✈ SWA2147 ✈ 03-Aug-2013 ✈ KDEN - KLAS

Flight Track Log - Related Links

Times and Time Zones

All times are in EDT time to prevent confusion due to time zone crossing. See the SWA2147 flight status page for this flight to view local times or setup timezone preferences in your user account.

Time Position Orientation Groundspeed Altitude Reporting Facility
EDT Latitude Longitude Course Direction KTS MPH feet Rate Location/Type
09:16AM 39.8333 -104.7833 270° West 198 228 7,300  Level Denver TRACON
09:17AM 39.8333 -104.8667 270° West 258 297 9,100 2,160 Climbing Denver TRACON
09:18AM 39.8389 -104.9625 274° West 266 306 11,600 1,920 Climbing Denver Center
09:19AM 39.8211 -105.0747 258° West 322 371 12,900 1,620 Climbing Denver Center
09:20AM 39.7967 -105.1956 255° West 348 400 14,900 2,160 Climbing Denver Center
09:21AM 39.7706 -105.3236 255° West 361 415 17,400 2,280 Climbing Denver Center
09:22AM 39.7431 -105.4508 254° West 366 421 19,600 2,220 Climbing Denver Center
09:23AM 39.7139 -105.5903 255° West 372 428 21,900 2,160 Climbing Denver Center
09:24AM 39.6908 -105.7225 257° West 376 433 24,000 1,020 Climbing Denver Center
09:25AM 39.6786 -105.8456 263° West 381 438 24,000  Level Denver Center
09:26AM 39.6464 -105.9844 253° West 398 458 24,000 360 Level Denver Center
09:27AM 39.6069 -106.1244 250° West 411 473 24,800 1,320 Climbing Denver Center
09:28AM 39.5658 -106.2750 251° West 419 482 26,700 1,800 Climbing Denver Center
09:29AM 39.5258 -106.4167 250° West 418 481 28,500 1,860 Climbing Denver Center
09:30AM 39.4856 -106.5575 250° West 411 473 30,500 1,680 Climbing Denver Center
09:31AM 39.4433 -106.7086 250° West 399 459 32,000 720 Climbing Denver Center
09:32AM 39.4069 -106.8347 250° West 392 451 32,000  Level Denver Center
09:33AM 39.3725 -106.9608 251° West 391 450 32,000  Level Denver Center
09:34AM 39.3289 -107.1117 250° West 398 458 32,000  Level Denver Center
09:35AM 39.2917 -107.2417 250° West 400 460 32,000  Level Denver Center
09:36AM 39.2536 -107.3725 249° West 404 465 32,000  Level Denver Center
09:37AM 39.2017 -107.5492 249° West 410 472 32,000  Level Denver Center
09:39AM 39.1636 -107.6803 250° West 409 471 32,000  Level Denver Center
09:40AM 39.1169 -107.8347 249° West 411 473 32,000  Level Denver Center
09:41AM 39.0406 -108.0994 250° West 413 475 32,000  Level Salt Lake Center
09:43AM 38.9939 -108.2536 249° West 413 475 32,000  Level Denver Center
09:44AM 38.9528 -108.3853 248° West 416 479 32,000  Level Denver Center
09:45AM 38.9139 -108.5161 249° West 408 470 32,000  Level Denver Center
09:46AM 38.8697 -108.6653 249° West 400 460 32,000  Level Denver Center
09:47AM 38.8317 -108.7919 249° West 397 457 32,000  Level Denver Center
09:49AM 38.7542 -109.0456 249° West 396 456 32,000  Level Salt Lake Center
09:50AM 38.7156 -109.1708 248° West 394 453 32,000  Level Salt Lake Center
09:51AM 38.6706 -109.3178 249° West 395 455 32,000  Level Salt Lake Center
09:52AM 38.6319 -109.4431 249° West 395 455 32,000  Level Salt Lake Center
09:53AM 38.5864 -109.5861 248° West 392 451 32,000  Level Salt Lake Center
09:54AM 38.5406 -109.7311 248° West 395 455 32,000  Level Denver Center
09:55AM 38.5017 -109.8542 248° West 392 451 32,000  Level Denver Center
09:56AM 38.4550 -109.9708 243° Southwest 387 445 32,000  Level Denver Center
09:57AM 38.3967 -110.1047 241° Southwest 388 447 32,000  Level Denver Center
09:58AM 38.3572 -110.2031 243° Southwest 387 445 32,000  Level Salt Lake Center
09:59AM 38.3000 -110.3383 242° Southwest 388 447 32,000  Level Salt Lake Center
10:00AM 38.2394 -110.4700 240° Southwest 388 447 32,000  Level Denver Center
10:01AM 38.1886 -110.5850 241° Southwest 389 448 32,000  Level Denver Center
10:02AM 38.1294 -110.7206 241° Southwest 392 451 32,000  Level Denver Center
10:03AM 38.0789 -110.8353 241° Southwest 390 449 32,000  Level Denver Center
10:04AM 38.0333 -110.9433 242° Southwest 390 449 32,000  Level Salt Lake Center
10:05AM 37.9794 -111.0639 240° Southwest 394 453 32,000  Level Salt Lake Center
10:06AM 37.9258 -111.1831 240° Southwest 391 450 32,000  Level Salt Lake Center
10:07AM 37.8611 -111.3283 241° Southwest 396 456 32,000  Level Denver Center
10:08AM 37.8067 -111.4483 240° Southwest 395 455 32,000  Level Denver Center
10:09AM 37.7544 -111.5703 242° Southwest 394 453 32,000  Level Salt Lake Center
10:10AM 37.6986 -111.6897 239° Southwest 395 455 32,000  Level Salt Lake Center
10:11AM 37.6444 -111.8103 240° Southwest 394 453 32,000  Level Salt Lake Center
10:12AM 37.5903 -111.9300 240° Southwest 394 453 32,000  Level Salt Lake Center
10:13AM 37.5358 -112.0486 240° Southwest 390 449 32,000  Level Salt Lake Center
10:14AM 37.4822 -112.1672 240° Southwest 389 448 32,000  Level Salt Lake Center
10:15AM 37.4269 -112.2850 239° Southwest 390 449 32,000 -60 Level Salt Lake Center
10:16AM 37.3725 -112.4042 240° Southwest 390 449 31,900 -660 Descending Salt Lake Center
10:17AM 37.3042 -112.5478 239° Southwest 395 455 30,700 -960 Descending Salt Lake Center
10:18AM 37.2475 -112.6703 240° Southwest 400 460 30,000 -360 Descending Salt Lake Center
10:19AM 37.1897 -112.7919 239° Southwest 402 463 30,000  Level Salt Lake Center
10:20AM 37.1331 -112.9133 240° Southwest 402 463 30,000  Level Salt Lake Center
10:21AM 37.0767 -113.0342 240° Southwest 401 461 30,000  Level Salt Lake Center
10:22AM 37.0197 -113.1544 239° Southwest 400 460 30,000  Level Salt Lake Center
10:23AM 36.9622 -113.2744 239° Southwest 401 461 30,000  Level Salt Lake Center
10:24AM 36.9050 -113.3950 239° Southwest 402 463 30,000  Level Salt Lake Center
10:25AM 36.8483 -113.5164 240° Southwest 404 465 30,000 -900 Level Salt Lake Center
10:26AM 36.7789 -113.6594 239° Southwest 402 463 28,200 -2,160 Descending Salt Lake Center
10:27AM 36.7236 -113.7761 239° Southwest 394 453 25,600 -2,460 Descending Salt Lake Center
10:29AM 36.6572 -113.9081 238° Southwest 380 437 22,700 -2,160 Descending Los Angeles Center
10:30AM 36.6033 -114.0186 239° Southwest 376 433 20,800 -1,920 Descending Los Angeles Center
10:31AM 36.5508 -114.1294 239° Southwest 373 429 18,800 -2,160 Descending Los Angeles Center
10:32AM 36.5000 -114.2408 240° Southwest 355 409 16,400 -2,400 Descending Los Angeles Center
10:33AM 36.4567 -114.3439 242° Southwest 341 392 14,000 -1,620 Descending Los Angeles Center
10:34AM 36.4128 -114.4389 240° Southwest 318 366 13,100 -840 Descending Los Angeles Center
10:35AM 36.3536 -114.4814 210° Southwest 262 302 12,400 -1,020 Descending Los Angeles Center
10:36AM 36.2864 -114.4833 181° South 241 277 11,100 -1,200 Descending Los Angeles Center
10:37AM 36.2089 -114.4753 175° South 233 268 10,000 -660 Descending Los Angeles Center
10:38AM 36.1508 -114.4772 182° South 226 260 9,800 -600 Descending Los Angeles Center
10:39AM 36.1289 -114.5542 251° West 237 273 8,800 -900 Descending Los Angeles Center
10:40AM 36.1044 -114.6319 249° West 242 278 8,000 -420 Descending Los Angeles Center
10:41AM 36.0778 -114.7097 247° West 245 282 8,000 -360 Level Los Angeles Center
10:42AM 36.0731 -114.8178 267° West 238 274 7,200 -840 Descending Los Angeles Center
10:43AM 36.0717 -114.8711 268° West 237 273 6,300 -1,380 Descending Los Angeles Center
10:44AM 36.0744 -114.9719 272° West 213 245 4,400 -1,320 Descending Los Angeles Center
10:45AM 36.0728 -115.0336 268° West 181 208 3,400 -840 Descending Los Angeles Center
10:46AM 36.0731 -115.0842 270° West 158 182 2,800 -720 Descending Los Angeles Center
10:47AM 36.0728 -115.1328 270° West 161 185 2,000 -720 Descending Los Angeles Center
10:49AM 36.0667 -115.1500 270° West  Level FlightAware Approximate